TimeCDT,TemperatureF,Dew PointF,Humidity,Sea Level PressureIn,VisibilityMPH,Wind Direction,Wind SpeedMPH,Gust SpeedMPH,PrecipitationIn,Events,Conditions,WindDirDegrees,DateUTC
12:44 AM,28.4,26.6,93,29.93,5.0,West,15.0,-,N/A,,Overcast,270,2013-03-11 05:44:00
12:57 AM,28.9,27.0,92,29.94,6.0,West,13.8,-,N/A,,Overcast,270,2013-03-11 05:57:00
1:04 AM,28.4,26.6,93,29.93,7.0,West,16.1,23.0,N/A,,Overcast,280,2013-03-11 06:04:00
1:29 AM,28.4,26.6,93,29.92,4.0,WNW,10.4,-,N/A,,Overcast,290,2013-03-11 06:29:00
1:57 AM,28.4,26.6,93,29.91,7.0,WNW,15.0,23.0,N/A,,Overcast,290,2013-03-11 06:57:00
1:59 AM,28.0,26.1,92,29.94,8.0,WNW,15.0,23.0,N/A,,Overcast,290,2013-03-11 06:59:00
2:07 AM,28.4,26.6,93,29.91,9.0,WNW,15.0,-,N/A,,Overcast,290,2013-03-11 07:07:00
2:11 AM,28.4,26.6,93,29.91,10.0,WNW,15.0,-,N/A,,Overcast,290,2013-03-11 07:11:00
2:37 AM,28.4,26.6,93,29.90,7.0,WNW,17.3,24.2,N/A,,Overcast,290,2013-03-11 07:37:00
2:42 AM,28.4,26.6,93,29.91,9.0,WNW,13.8,25.3,N/A,,Overcast,290,2013-03-11 07:42:00
2:57 AM,27.0,26.1,96,29.94,10.0,West,17.3,-,N/A,,Overcast,280,2013-03-11 07:57:00
3:57 AM,27.0,25.0,92,29.96,10.0,West,15.0,-,N/A,,Overcast,280,2013-03-11 08:57:00
4:57 AM,27.0,25.0,92,29.95,10.0,West,12.7,-,N/A,,Overcast,270,2013-03-11 09:57:00
5:57 AM,27.0,25.0,92,29.96,10.0,West,15.0,19.6,N/A,,Overcast,270,2013-03-11 10:57:00
7:57 AM,27.0,24.1,89,29.96,10.0,West,15.0,-,N/A,,Overcast,280,2013-03-11 12:57:00
8:57 AM,27.0,24.1,89,29.98,10.0,West,15.0,-,N/A,,Overcast,280,2013-03-11 13:57:00
9:33 AM,28.4,24.8,86,29.96,10.0,West,15.0,-,N/A,,Overcast,280,2013-03-11 14:33:00
9:57 AM,28.9,25.0,85,30.01,10.0,WNW,13.8,-,N/A,,Overcast,290,2013-03-11 14:57:00
10:57 AM,30.9,26.1,82,30.01,10.0,WNW,12.7,-,N/A,,Overcast,290,2013-03-11 15:57:00
11:57 AM,34.0,27.0,75,30.00,10.0,West,9.2,-,N/A,,Overcast,270,2013-03-11 16:57:00
12:57 PM,34.0,26.1,73,30.01,10.0,West,16.1,-,N/A,,Overcast,260,2013-03-11 17:57:00
1:46 PM,37.4,26.6,65,29.96,10.0,West,10.4,16.1,N/A,,Scattered Clouds,270,2013-03-11 18:46:00
1:57 PM,39.0,26.1,60,29.98,10.0,WSW,10.4,18.4,N/A,,Scattered Clouds,250,2013-03-11 18:57:00
2:57 PM,41.0,26.1,55,29.96,10.0,West,18.4,21.9,N/A,,Partly Cloudy,260,2013-03-11 19:57:00
3:57 PM,43.0,24.1,47,29.97,10.0,West,17.3,23.0,N/A,,Clear,270,2013-03-11 20:57:00
4:57 PM,43.0,24.1,47,29.98,10.0,West,15.0,19.6,N/A,,Clear,280,2013-03-11 21:57:00
5:57 PM,43.0,19.9,40,29.99,10.0,West,11.5,-,N/A,,Clear,270,2013-03-11 22:57:00
6:57 PM,42.1,19.9,41,29.99,10.0,WNW,8.1,-,N/A,,Clear,290,2013-03-11 23:57:00
7:57 PM,39.0,19.0,45,30.01,10.0,West,5.8,-,N/A,,Clear,280,2013-03-12 00:57:00
8:57 PM,39.0,19.0,45,30.02,10.0,West,3.5,-,N/A,,Clear,260,2013-03-12 01:57:00
9:57 PM,37.9,19.0,47,30.05,10.0,West,4.6,-,N/A,,Clear,260,2013-03-12 02:57:00
10:57 PM,36.0,19.9,52,30.06,10.0,WSW,3.5,-,N/A,,Clear,240,2013-03-12 03:57:00
11:57 PM,35.1,21.9,59,30.05,10.0,South,4.6,-,N/A,,Clear,180,2013-03-12 04:57:00